Time;durP1;ratioP1;P1;durP2;ratioP2;P2;SDS_P1;SDS_P2;PMS_P1;PMS_P2;Temp;Humidity;BMP_temperature;BMP_pressure;BME280_temperature;BME280_humidity;BME280_pressure;Samples;Min_cycle;Max_cycle;Signal;HPM_P1;HPM_P2
2023/05/17 00:02:09;;;;;;;0.50;0.50;;;;;;;10.06;86.41;95512.91;4333674;32;20182;-59
2023/05/17 00:04:34;;;;;;;2.20;1.27;;;;;;;10.08;84.42;95513.41;4358957;32;20216;-58
2023/05/17 00:07:00;;;;;;;1.40;0.53;;;;;;;10.05;84.98;95512.09;4348012;32;20237;-59
2023/05/17 00:09:25;;;;;;;0.80;0.77;;;;;;;9.93;86.61;95525.00;4352194;32;20207;-58
2023/05/17 00:11:50;;;;;;;0.63;0.63;;;;;;;9.93;84.52;95519.69;4348292;32;20244;-58
2023/05/17 00:14:16;;;;;;;0.10;0.10;;;;;;;9.95;84.87;95521.00;4355778;32;20208;-59
2023/05/17 00:16:41;;;;;;;1.23;0.87;;;;;;;9.98;84.99;95523.03;4338810;32;20195;-58
2023/05/17 00:19:08;;;;;;;0.43;0.43;;;;;;;9.94;85.01;95531.88;4361100;32;20232;-58
2023/05/17 00:21:34;;;;;;;0.40;0.40;;;;;;;9.91;84.77;95533.22;4361527;32;20181;-58
2023/05/17 00:23:59;;;;;;;0.20;0.20;;;;;;;9.88;83.68;95541.72;4349681;32;20277;-58
2023/05/17 00:26:24;;;;;;;0.17;0.17;;;;;;;9.84;83.97;95537.28;4347745;32;20213;-59
2023/05/17 00:28:50;;;;;;;3.03;0.53;;;;;;;9.89;84.90;95545.16;4347027;32;20196;-58
2023/05/17 00:31:15;;;;;;;0.40;0.40;;;;;;;9.87;85.27;95547.31;4359018;32;20185;-58
2023/05/17 00:33:40;;;;;;;1.00;0.67;;;;;;;9.82;83.13;95550.81;4340120;32;20193;-58
2023/05/17 00:36:06;;;;;;;2.07;0.70;;;;;;;9.73;83.34;95547.22;4361672;32;20205;-58
2023/05/17 00:38:31;;;;;;;0.47;0.47;;;;;;;9.69;83.31;95548.06;4360858;32;20189;-57
2023/05/17 00:40:56;;;;;;;0.70;0.70;;;;;;;9.73;83.47;95546.41;4354622;32;20242;-58
2023/05/17 00:43:22;;;;;;;1.50;0.70;;;;;;;9.66;85.45;95554.69;4352848;32;20292;-58
2023/05/17 00:45:49;;;;;;;0.93;0.47;;;;;;;9.78;83.57;95549.00;4341517;32;20228;-58
2023/05/17 00:48:14;;;;;;;0.73;0.37;;;;;;;9.76;83.01;95551.16;4342837;32;20174;-58
2023/05/17 00:50:40;;;;;;;0.50;0.50;;;;;;;9.70;83.41;95542.47;4344673;32;20304;-57
2023/05/17 00:53:06;;;;;;;1.33;0.40;;;;;;;9.68;83.28;95546.47;4347671;32;20203;-57
2023/05/17 00:55:32;;;;;;;0.57;0.50;;;;;;;9.72;82.91;95544.84;4363383;32;20188;-58
2023/05/17 00:57:57;;;;;;;0.20;0.20;;;;;;;9.61;83.97;95550.22;4342374;32;20185;-57
2023/05/17 01:00:23;;;;;;;0.17;0.17;;;;;;;9.69;83.38;95545.41;4343842;32;20189;-59
2023/05/17 01:02:48;;;;;;;0.27;0.27;;;;;;;9.72;82.85;95548.28;4350856;32;20185;-58
2023/05/17 01:05:14;;;;;;;0.53;0.30;;;;;;;9.67;83.89;95558.13;4359891;32;20278;-59
2023/05/17 01:07:39;;;;;;;0.87;0.57;;;;;;;9.64;84.02;95549.69;4358321;32;20260;-58
2023/05/17 01:10:06;;;;;;;0.80;0.60;;;;;;;9.67;82.91;95553.62;4354784;32;20256;-58
2023/05/17 01:12:55;;;;;;;1.17;0.90;;;;;;;9.66;81.78;95552.03;4361861;32;20176;-58
2023/05/17 01:15:52;;;;;;;0.53;0.53;;;;;;;9.61;82.67;95560.03;4353006;32;20372;-58
2023/05/17 01:18:31;;;;;;;8.93;0.73;;;;;;;9.61;82.02;95555.53;4359032;32;20301;-59
2023/05/17 01:21:00;;;;;;;0.77;0.77;;;;;;;9.61;81.99;95555.53;4350122;32;20359;-58
2023/05/17 01:23:46;;;;;;;0.20;0.20;;;;;;;9.64;82.74;95559.47;4358444;32;20278;-58
2023/05/17 01:26:22;;;;;;;0.27;0.27;;;;;;;9.63;81.57;95553.41;4344312;32;20293;-58
2023/05/17 01:28:52;;;;;;;0.53;0.53;;;;;;;9.63;81.93;95557.91;4346770;32;20308;-58
2023/05/17 01:31:18;;;;;;;5.10;0.83;;;;;;;9.60;81.60;95561.09;4363818;32;20322;-58
2023/05/17 01:33:44;;;;;;;2.33;0.80;;;;;;;9.61;81.35;95575.94;4359076;32;20185;-58
2023/05/17 01:36:09;;;;;;;0.60;0.60;;;;;;;9.52;81.60;95572.31;4353072;32;20273;-59
2023/05/17 01:38:35;;;;;;;3.13;0.77;;;;;;;9.53;81.64;95569.41;4364499;32;20181;-58
2023/05/17 01:41:22;;;;;;;0.90;0.90;;;;;;;9.56;80.19;95578.66;4352245;32;20207;-58
2023/05/17 01:44:10;;;;;;;0.27;0.27;;;;;;;9.48;81.65;95581.91;4362512;32;20238;-58
2023/05/17 01:46:40;;;;;;;1.20;0.47;;;;;;;9.45;81.69;95577.94;4353002;32;20345;-58
2023/05/17 01:49:14;;;;;;;0.20;0.20;;;;;;;9.47;81.79;95578.47;4348055;32;20345;-58
2023/05/17 01:52:12;;;;;;;0.60;0.50;;;;;;;9.46;82.08;95584.03;4350413;32;20324;-57
2023/05/17 01:54:53;;;;;;;0.57;0.57;;;;;;;9.56;80.75;95574.13;4357181;32;20289;-58
2023/05/17 01:57:23;;;;;;;1.07;1.07;;;;;;;9.52;81.35;95580.28;4360290;32;20312;-58
2023/05/17 01:59:50;;;;;;;0.70;0.70;;;;;;;9.45;82.16;95577.94;4361944;32;20269;-58
2023/05/17 02:02:16;;;;;;;7.37;0.63;;;;;;;9.45;82.81;95588.53;4342358;32;20285;-58
2023/05/17 02:04:41;;;;;;;1.00;1.00;;;;;;;9.50;82.13;95585.84;4355107;32;20308;-58
2023/05/17 02:07:06;;;;;;;1.03;1.03;;;;;;;9.40;83.68;95588.56;4336745;32;20261;-59
2023/05/17 02:09:32;;;;;;;0.43;0.43;;;;;;;9.38;84.21;95585.41;4340896;32;20283;-58
2023/05/17 02:11:57;;;;;;;0.43;0.43;;;;;;;9.48;83.51;95582.69;4335089;32;20200;-57
2023/05/17 02:14:22;;;;;;;0.47;0.47;;;;;;;9.51;83.26;95586.63;4351295;32;20270;-59
2023/05/17 02:16:47;;;;;;;0.77;0.77;;;;;;;9.49;83.75;95584.25;4347338;32;20252;-58
2023/05/17 02:19:13;;;;;;;0.33;0.33;;;;;;;9.46;85.24;95584.03;4350863;32;20213;-63
2023/05/17 02:21:39;;;;;;;0.70;0.70;;;;;;;9.43;84.93;95584.59;4339698;32;20196;-58
2023/05/17 02:24:05;;;;;;;0.70;0.70;;;;;;;9.62;84.62;95583.59;4348397;32;20185;-58
2023/05/17 02:26:30;;;;;;;0.73;0.73;;;;;;;9.40;85.42;95588.56;4352732;32;20193;-58
2023/05/17 02:28:56;;;;;;;2.83;1.00;;;;;;;9.40;86.37;95596.53;4344272;32;20177;-58
2023/05/17 02:31:25;;;;;;;0.30;0.30;;;;;;;9.37;85.28;95589.13;4348323;32;20201;-58
2023/05/17 02:33:51;;;;;;;0.30;0.30;;;;;;;9.42;85.31;95597.03;4338764;32;20278;-58
2023/05/17 02:36:17;;;;;;;0.63;0.63;;;;;;;9.44;85.34;95602.06;4339246;32;20284;-57
2023/05/17 02:38:42;;;;;;;0.73;0.73;;;;;;;9.49;85.19;95596.72;4348856;32;20277;-58
2023/05/17 02:41:07;;;;;;;0.70;0.60;;;;;;;9.42;84.90;95599.69;4353482;32;20220;-55
2023/05/17 02:43:33;;;;;;;1.13;0.80;;;;;;;9.42;86.41;95594.38;4330928;32;20235;-59
2023/05/17 02:45:58;;;;;;;0.80;0.40;;;;;;;9.35;85.32;95599.22;4355877;32;20185;-58
2023/05/17 02:48:23;;;;;;;0.33;0.33;;;;;;;9.37;84.34;95602.38;4349261;32;20189;-57
2023/05/17 02:50:49;;;;;;;0.43;0.43;;;;;;;9.27;85.51;95592.66;4334764;32;20220;-58
2023/05/17 02:53:14;;;;;;;0.70;0.70;;;;;;;9.28;83.80;95612.78;4337213;32;20194;-58
2023/05/17 02:55:39;;;;;;;0.17;0.17;;;;;;;9.22;85.01;95610.44;4352172;32;20189;-58
2023/05/17 02:58:05;;;;;;;0.20;0.20;;;;;;;9.16;85.96;95609.69;4349338;32;20193;-58
2023/05/17 03:00:30;;;;;;;0.53;0.53;;;;;;;9.17;85.50;95610.47;4336412;32;20186;-58
2023/05/17 03:02:56;;;;;;;0.97;0.80;;;;;;;9.28;84.64;95609.34;4339027;32;20216;-55
2023/05/17 03:05:21;;;;;;;0.70;0.70;;;;;;;9.34;83.10;95618.03;4359769;32;20200;-58
2023/05/17 03:07:46;;;;;;;1.47;0.87;;;;;;;9.06;84.83;95622.22;4344698;32;20223;-58
2023/05/17 03:10:12;;;;;;;2.23;1.70;;;;;;;9.02;84.83;95621.97;4346172;32;20196;-59
2023/05/17 03:12:37;;;;;;;2.53;1.13;;;;;;;9.14;84.61;95629.56;4359230;32;20220;-58
2023/05/17 03:15:03;;;;;;;3.03;0.90;;;;;;;9.26;83.96;95630.78;4358611;32;20185;-61
2023/05/17 03:17:28;;;;;;;0.43;0.43;;;;;;;9.26;83.05;95635.31;4364012;32;20177;-58
2023/05/17 03:19:54;;;;;;;0.37;0.37;;;;;;;9.29;83.11;95630.25;4354990;32;20193;-57
2023/05/17 03:22:19;;;;;;;0.40;0.40;;;;;;;9.29;83.05;95642.69;4342778;32;20199;-56
2023/05/17 03:24:44;;;;;;;0.37;0.37;;;;;;;9.26;83.45;95646.69;4347884;32;20192;-58
2023/05/17 03:27:09;;;;;;;0.40;0.33;;;;;;;9.20;82.29;95644.34;4358264;32;20247;-58
2023/05/17 03:29:35;;;;;;;0.87;0.87;;;;;;;9.19;82.73;95650.69;4348641;32;20177;-58
2023/05/17 03:32:00;;;;;;;0.30;0.30;;;;;;;9.24;81.42;95655.97;4350350;32;20181;-58
2023/05/17 03:34:26;;;;;;;0.37;0.37;;;;;;;9.21;81.43;95651.22;4358941;32;20218;-58
2023/05/17 03:36:51;;;;;;;0.60;0.60;;;;;;;9.20;82.00;95660.22;4346607;32;20185;-58
2023/05/17 03:39:16;;;;;;;0.90;0.33;;;;;;;9.14;81.64;95662.13;4360851;32;20173;-57
2023/05/17 03:41:42;;;;;;;2.80;0.70;;;;;;;9.17;80.70;95661.56;4362009;32;20192;-58
2023/05/17 03:44:07;;;;;;;0.27;0.27;;;;;;;9.22;79.75;95671.31;4359745;32;20597;-56
2023/05/17 03:46:32;;;;;;;0.20;0.20;;;;;;;9.19;80.43;95669.22;4344269;32;20204;-61
2023/05/17 03:48:58;;;;;;;0.50;0.47;;;;;;;9.27;79.73;95671.28;4362731;32;20197;-58
2023/05/17 03:51:23;;;;;;;0.30;0.30;;;;;;;9.07;79.72;95676.72;4345015;32;20251;-57
2023/05/17 03:53:56;;;;;;;0.30;0.30;;;;;;;9.12;79.29;95676.69;4362448;32;20288;-56
2023/05/17 03:56:22;;;;;;;0.20;0.20;;;;;;;9.04;79.99;95685.22;4357773;32;20185;-57
2023/05/17 03:58:47;;;;;;;0.47;0.47;;;;;;;9.01;79.84;95680.47;4360223;32;20370;-58
2023/05/17 04:01:12;;;;;;;0.63;0.40;;;;;;;8.99;79.20;95690.53;4357239;32;20190;-58
2023/05/17 04:03:38;;;;;;;5.90;1.27;;;;;;;8.94;79.27;95693.97;4355022;32;20312;-58
2023/05/17 04:06:07;;;;;;;1.30;0.77;;;;;;;8.95;80.25;95695.56;4333395;32;20251;-57
2023/05/17 04:08:35;;;;;;;2.90;0.80;;;;;;;9.00;79.51;95702.69;4331384;32;20205;-57
2023/05/17 04:11:09;;;;;;;0.77;0.57;;;;;;;9.04;78.74;95719.59;4340762;32;20288;-58
2023/05/17 04:13:37;;;;;;;0.40;0.40;;;;;;;9.04;78.60;95709.81;4348532;32;20297;-58
2023/05/17 04:16:02;;;;;;;3.50;0.80;;;;;;;9.02;79.10;95711.16;4350714;32;20278;-61
2023/05/17 04:18:28;;;;;;;0.27;0.27;;;;;;;9.08;77.75;95718.00;4346878;32;20380;-58
2023/05/17 04:20:56;;;;;;;1.03;0.70;;;;;;;9.04;78.14;95720.41;4334804;32;20189;-57
2023/05/17 04:23:21;;;;;;;1.63;0.60;;;;;;;9.00;78.98;95721.22;4335124;32;20292;-58
2023/05/17 04:25:46;;;;;;;0.20;0.20;;;;;;;8.84;77.86;95725.78;4334104;32;20356;-58
2023/05/17 04:28:12;;;;;;;0.20;0.20;;;;;;;8.88;78.54;95727.63;4332838;32;20205;-57
2023/05/17 04:30:41;;;;;;;1.47;0.37;;;;;;;8.97;78.23;95722.53;4348428;32;20251;-56
2023/05/17 04:33:07;;;;;;;0.40;0.40;;;;;;;8.94;78.92;95725.72;4353046;32;20177;-57
2023/05/17 04:35:32;;;;;;;0.00;0.00;;;;;;;9.00;79.13;95729.16;4350523;32;20297;-56
2023/05/17 04:37:57;;;;;;;0.30;0.30;;;;;;;8.90;79.65;95738.75;4333398;32;20186;-56
2023/05/17 04:40:23;;;;;;;0.10;0.10;;;;;;;9.01;80.76;95744.75;4345904;32;20178;-57
2023/05/17 04:42:49;;;;;;;5.63;0.60;;;;;;;9.04;79.29;95738.91;4339426;32;20232;-56
2023/05/17 04:45:15;;;;;;;3.53;0.93;;;;;;;9.14;79.45;95754.75;4336659;32;20188;-57
2023/05/17 04:47:40;;;;;;;0.40;0.40;;;;;;;9.02;78.62;95753.50;4337898;32;20308;-57
2023/05/17 04:50:05;;;;;;;0.40;0.40;;;;;;;9.05;77.98;95758.25;4342354;32;20301;-57
2023/05/17 04:52:31;;;;;;;0.20;0.20;;;;;;;9.21;77.99;95752.59;4353155;32;20193;-57
2023/05/17 04:54:56;;;;;;;1.57;0.70;;;;;;;9.05;78.54;95758.25;4329848;32;20186;-57
2023/05/17 04:57:22;;;;;;;0.57;0.57;;;;;;;9.19;78.44;95764.50;4345443;32;20280;-55
2023/05/17 04:59:47;;;;;;;5.30;1.10;;;;;;;9.17;76.80;95761.34;4345894;32;20257;-57
2023/05/17 05:02:13;;;;;;;0.40;0.40;;;;;;;9.16;76.60;95757.09;4332811;32;20185;-57
2023/05/17 05:04:38;;;;;;;0.73;0.73;;;;;;;9.19;78.22;95759.22;4334280;32;20296;-57
2023/05/17 05:07:04;;;;;;;0.17;0.17;;;;;;;9.25;77.53;95763.44;4353067;32;20253;-58
2023/05/17 05:09:29;;;;;;;0.87;0.50;;;;;;;9.18;76.71;95768.22;4356640;32;20204;-51
2023/05/17 05:11:55;;;;;;;0.57;0.57;;;;;;;9.19;77.12;95769.81;4355338;32;20202;-49
2023/05/17 05:14:20;;;;;;;1.00;0.63;;;;;;;9.16;77.71;95776.44;4360811;32;20253;-52
2023/05/17 05:16:46;;;;;;;1.50;0.93;;;;;;;9.23;77.47;95776.13;4339195;32;20200;-50
2023/05/17 05:19:11;;;;;;;1.13;0.97;;;;;;;9.10;77.89;95772.25;4356230;32;20185;-54
2023/05/17 05:21:36;;;;;;;0.67;0.67;;;;;;;9.24;77.19;95778.53;4360352;32;20193;-53
2023/05/17 05:24:03;;;;;;;0.00;0.00;;;;;;;9.29;75.50;95780.34;4341098;32;20193;-51
2023/05/17 05:26:28;;;;;;;0.43;0.43;;;;;;;9.22;76.67;95779.84;4340356;32;20208;-54
2023/05/17 05:28:53;;;;;;;1.80;0.83;;;;;;;9.11;76.98;95779.13;4339164;32;20316;-53
2023/05/17 05:31:19;;;;;;;0.50;0.50;;;;;;;9.17;76.39;95771.94;4360777;32;20197;-52
2023/05/17 05:33:44;;;;;;;2.00;0.73;;;;;;;9.06;76.84;95781.00;4337783;32;20205;-50
2023/05/17 05:36:10;;;;;;;0.17;0.17;;;;;;;9.05;78.80;95768.81;4340121;32;20200;-51
2023/05/17 05:38:36;;;;;;;0.40;0.40;;;;;;;9.24;78.20;95777.72;4357103;32;20234;-54
2023/05/17 05:41:01;;;;;;;0.80;0.80;;;;;;;9.40;77.12;95781.88;4355876;32;20185;-52
2023/05/17 05:43:26;;;;;;;0.03;0.03;;;;;;;9.20;75.45;95781.97;4353282;32;20174;-54
2023/05/17 05:45:52;;;;;;;0.67;0.67;;;;;;;9.30;76.12;95781.94;4342737;32;21431;-51
2023/05/17 05:48:17;;;;;;;0.40;0.40;;;;;;;9.38;75.71;95778.69;4337295;32;20181;-52
2023/05/17 05:50:44;;;;;;;0.30;0.30;;;;;;;9.40;75.88;95781.06;4340444;32;20193;-53
2023/05/17 05:53:11;;;;;;;7.40;1.57;;;;;;;9.49;76.72;95785.53;4338420;32;20185;-57
2023/05/17 05:55:41;;;;;;;1.27;1.17;;;;;;;11.09;100.00;95769.47;4342006;32;20297;-58
2023/05/17 05:58:06;;;;;;;3.33;2.47;;;;;;;12.95;100.00;95772.03;4336398;32;20196;-57
2023/05/17 06:00:32;;;;;;;1.33;1.30;;;;;;;13.84;100.00;95776.84;4357534;32;20181;-57
2023/05/17 06:02:58;;;;;;;1.50;1.43;;;;;;;14.56;100.00;95775.88;4346677;32;20239;-57
2023/05/17 06:05:23;;;;;;;0.63;0.63;;;;;;;14.94;91.72;95784.25;4347581;32;20181;-57
2023/05/17 06:07:49;;;;;;;1.30;1.07;;;;;;;15.45;84.65;95776.34;4363815;32;20255;-57
2023/05/17 06:10:14;;;;;;;3.50;1.23;;;;;;;15.60;75.67;95779.69;4342236;32;20177;-59
2023/05/17 06:12:39;;;;;;;1.43;0.87;;;;;;;15.34;73.59;95787.66;4352075;32;20181;-57
2023/05/17 06:15:05;;;;;;;1.07;0.97;;;;;;;15.48;75.62;95790.97;4339552;32;20227;-55
2023/05/17 06:17:31;;;;;;;0.40;0.40;;;;;;;14.06;55.26;95792.84;4344390;32;20178;-56
2023/05/17 06:19:56;;;;;;;3.20;1.13;;;;;;;12.58;59.03;95794.31;4358585;32;20256;-53
2023/05/17 06:22:21;;;;;;;1.67;0.80;;;;;;;12.00;62.68;95804.62;4362052;32;20243;-54
2023/05/17 06:24:47;;;;;;;0.93;0.70;;;;;;;11.29;64.06;95806.38;4358225;32;20241;-55
2023/05/17 06:27:12;;;;;;;0.30;0.30;;;;;;;10.83;65.58;95815.94;4343286;32;20189;-54
2023/05/17 06:29:37;;;;;;;0.30;0.30;;;;;;;10.23;68.30;95818.13;4346994;32;20235;-54
2023/05/17 06:32:03;;;;;;;0.20;0.20;;;;;;;10.11;69.62;95823.78;4348614;32;20181;-60
2023/05/17 06:34:28;;;;;;;0.23;0.23;;;;;;;10.07;68.63;95811.34;4363154;32;20248;-55
2023/05/17 06:36:54;;;;;;;0.33;0.33;;;;;;;10.02;69.13;95820.12;4362700;32;20196;-56
2023/05/17 06:39:19;;;;;;;0.60;0.60;;;;;;;9.96;69.84;95822.03;4361912;32;20280;-53
2023/05/17 06:41:44;;;;;;;0.30;0.30;;;;;;;9.93;69.23;95819.94;4356919;32;20181;-51
2023/05/17 06:44:10;;;;;;;0.60;0.40;;;;;;;9.88;70.01;95824.47;4359142;32;20193;-54
2023/05/17 06:46:36;;;;;;;2.00;0.60;;;;;;;9.80;70.31;95817.88;4343566;32;20190;-55
2023/05/17 06:49:01;;;;;;;0.40;0.40;;;;;;;9.99;71.01;95820.66;4365408;32;20181;-54
2023/05/17 06:51:26;;;;;;;5.60;1.20;;;;;;;10.09;71.66;95823.25;4358358;32;20193;-53
2023/05/17 06:53:52;;;;;;;0.37;0.27;;;;;;;10.13;70.81;95826.94;4350762;32;22031;-55
2023/05/17 06:56:17;;;;;;;0.20;0.20;;;;;;;10.09;69.59;95831.22;4359499;32;20182;-52
2023/05/17 06:58:42;;;;;;;0.50;0.50;;;;;;;9.99;69.74;95833.91;4347278;32;20184;-53
2023/05/17 07:01:08;;;;;;;0.50;0.50;;;;;;;10.03;71.09;95828.88;4341205;32;20288;-52
2023/05/17 07:03:34;;;;;;;0.20;0.20;;;;;;;10.05;70.46;95832.81;4338200;32;20196;-55
2023/05/17 07:06:00;;;;;;;0.37;0.37;;;;;;;9.98;70.14;95829.69;4357320;32;20203;-55
2023/05/17 07:08:25;;;;;;;0.73;0.73;;;;;;;9.90;70.22;95841.69;4353271;32;20190;-54
2023/05/17 07:10:53;;;;;;;3.63;3.33;;;;;;;9.84;70.45;95850.72;4346081;32;20201;-55
2023/05/17 07:13:19;;;;;;;1.33;1.03;;;;;;;9.72;71.95;95839.69;4361642;32;20243;-54
2023/05/17 07:15:45;;;;;;;1.00;0.97;;;;;;;9.72;72.06;95852.13;4334657;32;20228;-55
2023/05/17 07:18:10;;;;;;;0.63;0.63;;;;;;;9.94;71.84;95845.38;4359688;32;20189;-53
2023/05/17 07:20:36;;;;;;;0.30;0.30;;;;;;;10.17;70.99;95849.19;4353055;32;20250;-53
2023/05/17 07:23:01;;;;;;;0.50;0.50;;;;;;;10.25;69.77;95853.13;4350948;32;20211;-55
2023/05/17 07:25:26;;;;;;;0.50;0.50;;;;;;;10.17;69.16;95849.19;4359520;32;20426;-54
2023/05/17 07:27:52;;;;;;;0.80;0.80;;;;;;;10.11;70.27;95850.28;4356863;32;22265;-53
2023/05/17 07:30:17;;;;;;;1.97;1.23;;;;;;;10.09;70.50;95851.62;4339774;32;20252;-54
2023/05/17 07:32:43;;;;;;;0.40;0.40;;;;;;;10.12;69.05;95851.88;4356714;32;20206;-54
2023/05/17 07:35:08;;;;;;;1.03;0.73;;;;;;;10.18;68.36;95853.41;4341021;32;20270;-52
2023/05/17 07:37:33;;;;;;;1.97;1.87;;;;;;;10.10;67.16;95853.19;4361923;32;20204;-54
2023/05/17 07:39:59;;;;;;;1.50;0.70;;;;;;;9.97;67.29;95857.28;4340145;32;20192;-55
2023/05/17 07:42:24;;;;;;;6.43;1.43;;;;;;;10.18;66.90;95856.06;4345706;32;20245;-51
2023/05/17 07:44:50;;;;;;;0.30;0.30;;;;;;;10.16;68.34;95857.41;4344774;32;20189;-53
2023/05/17 07:47:15;;;;;;;0.50;0.50;;;;;;;10.44;67.67;95856.66;4356041;32;20178;-55
2023/05/17 07:49:40;;;;;;;0.97;0.60;;;;;;;10.42;66.69;95858.00;4329436;32;20185;-54
2023/05/17 07:52:06;;;;;;;0.40;0.30;;;;;;;10.66;65.88;95857.00;4361438;32;20192;-53
2023/05/17 07:54:32;;;;;;;0.40;0.17;;;;;;;10.74;64.89;95860.13;4362059;32;20181;-52
2023/05/17 07:56:58;;;;;;;0.30;0.30;;;;;;;10.52;64.65;95863.22;4339607;32;20178;-56
2023/05/17 07:59:24;;;;;;;0.40;0.40;;;;;;;10.57;64.37;95858.69;4357419;32;20335;-52
2023/05/17 08:01:50;;;;;;;0.20;0.20;;;;;;;10.35;65.19;95855.69;4338179;32;20234;-55
2023/05/17 08:04:16;;;;;;;3.53;0.63;;;;;;;10.67;65.56;95858.56;4354312;32;20277;-55
2023/05/17 08:06:44;;;;;;;0.93;0.63;;;;;;;10.74;64.47;95862.78;4346707;32;20185;-56
2023/05/17 08:09:10;;;;;;;0.23;0.23;;;;;;;10.84;64.97;95862.66;4350628;32;20222;-55
2023/05/17 08:11:36;;;;;;;1.30;0.50;;;;;;;10.72;65.29;95849.78;4330582;32;20215;-55
2023/05/17 08:14:02;;;;;;;0.50;0.50;;;;;;;10.74;66.21;95860.13;4348901;32;20181;-56
2023/05/17 08:16:27;;;;;;;0.10;0.10;;;;;;;10.87;66.54;95862.87;4347537;32;20189;-55
2023/05/17 08:18:53;;;;;;;0.80;0.80;;;;;;;10.88;64.48;95867.12;4351959;32;20268;-55
2023/05/17 08:21:19;;;;;;;0.53;0.53;;;;;;;10.86;64.57;95863.97;4349421;32;20181;-56
2023/05/17 08:23:44;;;;;;;0.33;0.33;;;;;;;10.95;62.45;95864.16;4344749;32;20182;-53
2023/05/17 08:26:11;;;;;;;0.53;0.53;;;;;;;10.95;63.90;95862.28;4331977;32;20300;-56
2023/05/17 08:28:37;;;;;;;0.50;0.50;;;;;;;11.14;64.10;95869.50;4340321;32;20252;-55
2023/05/17 08:31:03;;;;;;;0.40;0.40;;;;;;;11.24;63.22;95866.72;4333806;32;20184;-52
2023/05/17 08:33:28;;;;;;;0.50;0.50;;;;;;;11.08;62.66;95867.97;4343655;32;20178;-54
2023/05/17 08:35:54;;;;;;;1.13;0.70;;;;;;;11.22;62.47;95853.72;4336310;32;20185;-55
2023/05/17 08:38:20;;;;;;;0.47;0.47;;;;;;;11.34;62.11;95864.75;4338723;32;20177;-55
2023/05/17 08:40:53;;;;;;;1.90;0.97;;;;;;;11.40;61.09;95868.16;4336263;32;26165;-52
2023/05/17 08:43:20;;;;;;;1.93;0.53;;;;;;;11.44;61.20;95877.09;4334312;32;20190;-55
2023/05/17 08:45:45;;;;;;;6.20;1.17;;;;;;;11.55;60.77;95875.13;4348611;32;20232;-54
2023/05/17 08:48:11;;;;;;;0.30;0.30;;;;;;;11.58;60.56;95875.34;4345538;32;20205;-56
2023/05/17 08:50:37;;;;;;;0.50;0.50;;;;;;;11.46;61.69;95869.66;4342922;32;20246;-53
2023/05/17 08:53:03;;;;;;;0.30;0.30;;;;;;;11.54;61.48;95865.56;4327265;32;20242;-54
2023/05/17 08:55:31;;;;;;;0.53;0.53;;;;;;;11.66;61.43;95868.59;4307358;33;20224;-54
2023/05/17 08:57:58;;;;;;;0.40;0.40;;;;;;;11.75;60.07;95874.06;4345498;32;20177;-54
2023/05/17 09:00:25;;;;;;;7.90;1.17;;;;;;;11.67;60.51;95870.19;4328836;32;20181;-54
2023/05/17 09:02:50;;;;;;;2.07;0.60;;;;;;;11.69;61.37;95874.12;4334913;32;20200;-54
2023/05/17 09:05:16;;;;;;;0.10;0.10;;;;;;;11.63;60.57;95877.97;4340644;32;20257;-52
2023/05/17 09:07:42;;;;;;;1.30;1.20;;;;;;;11.64;60.85;95882.16;4347363;32;20189;-55
2023/05/17 09:10:08;;;;;;;2.37;0.57;;;;;;;11.82;60.88;95885.19;4356550;32;20219;-55
2023/05/17 09:12:34;;;;;;;1.37;0.50;;;;;;;11.92;60.92;95883.16;4348709;32;20220;-55
2023/05/17 09:15:14;;;;;;;2.53;1.03;;;;;;;12.05;60.98;95885.09;4340517;32;20228;-56
2023/05/17 09:17:40;;;;;;;0.63;0.63;;;;;;;12.03;60.48;95891.78;4359219;32;20224;-55
2023/05/17 09:20:07;;;;;;;0.30;0.30;;;;;;;12.23;59.60;95888.84;4344067;32;20204;-53
2023/05/17 09:22:33;;;;;;;0.53;0.53;;;;;;;12.11;57.76;95891.13;4349579;32;20216;-53
2023/05/17 09:25:01;;;;;;;0.53;0.53;;;;;;;12.18;57.82;95901.41;4346480;32;20238;-56
2023/05/17 09:27:30;;;;;;;0.40;0.40;;;;;;;12.25;59.37;95889.34;4360213;32;20268;-57
2023/05/17 09:29:55;;;;;;;0.30;0.30;;;;;;;12.11;59.03;95898.31;4349074;32;20209;-56
2023/05/17 09:32:21;;;;;;;4.73;0.67;;;;;;;12.11;59.51;95899.09;4359312;32;20228;-56
2023/05/17 09:34:47;;;;;;;0.20;0.20;;;;;;;12.04;60.27;95894.16;4353876;32;20280;-55
2023/05/17 09:37:17;;;;;;;2.60;2.50;;;;;;;12.16;59.30;95899.03;4356588;32;20184;-55
2023/05/17 09:39:45;;;;;;;3.90;1.07;;;;;;;12.12;60.20;95900.69;4346331;32;20244;-54
2023/05/17 09:42:12;;;;;;;0.90;0.90;;;;;;;12.18;59.49;95896.88;4348532;32;20185;-53
2023/05/17 09:44:52;;;;;;;0.40;0.40;;;;;;;12.18;59.65;95901.41;4358502;32;20185;-54
2023/05/17 09:47:36;;;;;;;0.43;0.43;;;;;;;12.08;58.60;95897.03;4358577;32;20191;-55
2023/05/17 09:50:03;;;;;;;0.83;0.83;;;;;;;12.05;57.72;95893.06;4355229;32;20224;-56
2023/05/17 09:52:33;;;;;;;1.43;0.60;;;;;;;12.05;57.79;95886.97;4363627;32;20184;-54
2023/05/17 09:55:00;;;;;;;0.30;0.30;;;;;;;12.23;58.67;95883.53;4344080;32;20204;-56
2023/05/17 09:57:27;;;;;;;0.40;0.40;;;;;;;12.39;57.82;95887.50;4362183;32;20182;-56
2023/05/17 09:59:57;;;;;;;1.20;1.07;;;;;;;12.48;57.69;95881.50;4350026;32;20263;-58
2023/05/17 10:02:27;;;;;;;0.70;0.70;;;;;;;12.55;57.97;95889.94;4359856;32;20177;-58
2023/05/17 10:04:55;;;;;;;0.50;0.50;;;;;;;12.62;57.45;95888.47;4357963;32;20212;-58
2023/05/17 10:07:24;;;;;;;0.63;0.63;;;;;;;12.61;56.44;95889.56;4348061;32;20230;-56
2023/05/17 10:09:51;;;;;;;0.90;0.80;;;;;;;12.56;56.64;95886.19;4338833;32;20227;-56
2023/05/17 10:12:20;;;;;;;0.40;0.40;;;;;;;12.48;57.34;95879.66;4366332;32;22764;-58
2023/05/17 10:14:46;;;;;;;1.37;0.73;;;;;;;12.49;57.82;95880.44;4361759;32;20196;-58
2023/05/17 10:17:12;;;;;;;0.30;0.30;;;;;;;12.54;58.40;95881.16;4348572;32;20193;-57
2023/05/17 10:19:38;;;;;;;1.57;0.93;;;;;;;12.48;58.29;95878.84;4345597;32;20197;-56
2023/05/17 10:22:05;;;;;;;0.53;0.53;;;;;;;12.62;58.11;95880.50;4342456;32;20204;-58
2023/05/17 10:24:31;;;;;;;0.20;0.20;;;;;;;12.77;58.68;95886.63;4353631;32;20249;-58
2023/05/17 10:26:58;;;;;;;0.30;0.30;;;;;;;12.80;59.37;95886.84;4352149;32;20193;-59
2023/05/17 10:29:24;;;;;;;0.60;0.60;;;;;;;12.77;60.17;95882.09;4343188;32;20185;-57
2023/05/17 10:31:52;;;;;;;1.47;1.33;;;;;;;12.83;56.90;95874.81;4340954;32;20227;-57
2023/05/17 10:34:20;;;;;;;0.97;0.50;;;;;;;12.85;57.94;95878.78;4342167;32;20193;-57
2023/05/17 10:36:48;;;;;;;0.53;0.30;;;;;;;12.71;58.42;95868.06;4344103;32;20215;-57
2023/05/17 10:39:13;;;;;;;0.20;0.20;;;;;;;12.69;58.00;95877.44;4341832;32;20248;-56
2023/05/17 10:41:42;;;;;;;1.80;0.97;;;;;;;12.73;57.07;95875.78;4347500;32;20213;-53
2023/05/17 10:44:11;;;;;;;0.17;0.17;;;;;;;12.80;56.82;95878.84;4363271;32;20241;-58
2023/05/17 10:46:36;;;;;;;0.47;0.40;;;;;;;12.65;56.83;95879.13;4356346;32;20182;-56
2023/05/17 10:49:02;;;;;;;0.10;0.10;;;;;;;12.67;54.74;95882.28;4361738;32;20200;-53
2023/05/17 10:51:36;;;;;;;0.40;0.40;;;;;;;12.59;55.14;95872.28;4353222;32;20231;-55
2023/05/17 10:54:07;;;;;;;0.40;0.40;;;;;;;12.67;55.30;95871.63;4347968;32;20274;-53
2023/05/17 10:56:33;;;;;;;2.90;0.57;;;;;;;12.48;54.78;95866.34;4342601;32;20188;-56
2023/05/17 11:02:23;;;;;;;0.43;0.43;;;;;;;12.69;55.99;95874.78;4354751;32;20277;-53
2023/05/17 11:04:52;;;;;;;0.30;0.30;;;;;;;12.79;53.40;95871.16;4356959;32;20216;-55
2023/05/17 11:07:20;;;;;;;0.20;0.20;;;;;;;12.80;51.35;95875.41;4356846;32;20177;-56
2023/05/17 11:09:49;;;;;;;0.57;0.57;;;;;;;12.74;51.77;95867.50;4344433;32;20260;-54
2023/05/17 11:12:15;;;;;;;0.10;0.10;;;;;;;12.72;52.19;95864.34;4342894;32;20266;-54
2023/05/17 11:14:43;;;;;;;2.40;0.80;;;;;;;12.81;52.29;95866.34;4363086;32;20208;-54
2023/05/17 11:17:14;;;;;;;2.30;0.80;;;;;;;12.73;51.32;95859.78;4362409;32;20192;-54
2023/05/17 11:20:14;;;;;;;0.73;0.60;;;;;;;12.72;51.69;95855.56;4362264;32;20176;-53
2023/05/17 11:22:49;;;;;;;1.03;0.57;;;;;;;12.85;51.56;95857.47;4346358;32;20207;-56
2023/05/17 11:25:15;;;;;;;0.33;0.33;;;;;;;12.98;51.54;95855.91;4356398;32;20189;-56
2023/05/17 11:27:46;;;;;;;0.53;0.53;;;;;;;12.90;49.80;95860.03;4344840;32;20196;-57
2023/05/17 11:30:17;;;;;;;0.77;0.57;;;;;;;12.91;52.18;95856.28;4345502;32;20189;-52
2023/05/17 11:32:48;;;;;;;2.47;0.37;;;;;;;12.74;52.41;95859.50;4355193;32;20252;-55
2023/05/17 11:35:16;;;;;;;0.43;0.43;;;;;;;12.61;51.33;95859.50;4355390;32;20219;-55
2023/05/17 11:37:43;;;;;;;0.83;0.43;;;;;;;12.54;48.63;95859.84;4347692;32;20236;-55
2023/05/17 11:40:11;;;;;;;0.40;0.40;;;;;;;12.59;50.42;95854.44;4339967;32;20186;-56